TimeMST,TemperatureF,Dew PointF,Humidity,Sea Level PressureIn,VisibilityMPH,Wind Direction,Wind SpeedMPH,Gust SpeedMPH,PrecipitationIn,Events,Conditions,WindDirDegrees,DateUTC
12:53 AM,33.1,16.0,50,29.73,10.0,SW,9.2,-,N/A,,Clear,220,2013-03-07 07:53:00
1:53 AM,41.0,15.1,35,29.69,10.0,WSW,19.6,29.9,N/A,,Clear,240,2013-03-07 08:53:00
2:53 AM,37.0,15.1,41,29.73,10.0,SW,9.2,-,N/A,,Clear,230,2013-03-07 09:53:00
3:53 AM,37.9,14.0,38,29.72,10.0,West,8.1,-,N/A,,Clear,270,2013-03-07 10:53:00
4:53 AM,33.1,16.0,50,29.76,10.0,WSW,6.9,-,N/A,,Clear,250,2013-03-07 11:53:00
5:53 AM,33.1,17.1,52,29.84,10.0,Calm,Calm,-,N/A,,Clear,0,2013-03-07 12:53:00
6:53 AM,32.0,19.9,61,29.92,10.0,NNE,9.2,-,N/A,,Clear,30,2013-03-07 13:53:00
7:53 AM,33.1,21.9,64,29.95,-9999.0,NE,8.1,-,N/A,,Clear,40,2013-03-07 14:53:00
8:53 AM,37.0,25.0,62,29.94,10.0,ENE,13.8,-,N/A,,Clear,60,2013-03-07 15:53:00
9:53 AM,42.1,25.0,51,29.89,10.0,NE,11.5,-,N/A,,Clear,40,2013-03-07 16:53:00
10:53 AM,48.0,21.9,36,29.87,10.0,Variable,4.6,-,N/A,,Clear,0,2013-03-07 17:53:00
11:40 AM,51.8,15.8,24,29.96,10.0,SSW,16.1,25.3,N/A,,Scattered Clouds,210,2013-03-07 18:40:00
11:53 AM,51.1,15.1,24,29.84,10.0,SW,11.5,20.7,N/A,,Scattered Clouds,230,2013-03-07 18:53:00
12:53 PM,48.9,25.0,39,29.83,10.0,North,15.0,-,N/A,,Mostly Cloudy,350,2013-03-07 19:53:00
1:53 PM,48.9,19.9,32,29.79,10.0,SE,3.5,-,N/A,,Mostly Cloudy,130,2013-03-07 20:53:00
2:53 PM,50.0,19.0,29,29.79,10.0,Variable,3.5,-,N/A,,Overcast,0,2013-03-07 21:53:00
3:53 PM,48.9,24.1,38,29.80,10.0,NNW,9.2,-,N/A,,Overcast,340,2013-03-07 22:53:00
4:53 PM,46.0,25.0,44,29.85,10.0,North,5.8,-,N/A,,Overcast,360,2013-03-07 23:53:00
5:53 PM,41.0,26.1,55,29.90,10.0,ENE,3.5,-,N/A,,Overcast,70,2013-03-08 00:53:00
6:53 PM,39.0,24.1,55,29.91,10.0,SE,4.6,-,N/A,,Mostly Cloudy,140,2013-03-08 01:53:00
7:53 PM,33.1,23.0,66,29.95,10.0,Calm,Calm,-,N/A,,Clear,0,2013-03-08 02:53:00
8:53 PM,30.9,21.9,69,29.94,10.0,South,10.4,-,N/A,,Clear,190,2013-03-08 03:53:00
9:53 PM,28.9,21.0,72,29.92,10.0,South,8.1,-,N/A,,Clear,190,2013-03-08 04:53:00
10:53 PM,28.9,21.0,72,29.88,10.0,South,8.1,-,N/A,,Clear,190,2013-03-08 05:53:00
11:53 PM,30.0,21.0,69,29.86,10.0,South,9.2,-,N/A,,Clear,170,2013-03-08 06:53:00